DAL1738 KSLC-KLAS
Flight info
| Callsign | DAL1738 |
|---|---|
| Flight time | N/A |
| Altitude | 34000 |
| Route | ARCHZ1 MLF STEWW CHOWW4 |
| Aircraft | B738/M-SDE2E3FGHIRWXY/LB1 |
Departure
| Time | 2026-05-04 04:06 |
|---|---|
| Airport | Salt Lake City International Airport (KSLC) |
Arrival
| Time | N/A |
|---|---|
| Airport | Harry Reid International Airport (KLAS) |
| Time | Latitude | Longitude | Altitude | Speed | Heading |
|---|---|---|---|---|---|
| 2026-05-04 03:37 | 40.78477 | -111.99048 | 4230 ft | 0 kts | 355° |
| 2026-05-04 03:50 | 40.78475 | -111.99048 | 4230 ft | 2 kts | 355° |
| 2026-05-04 03:51 | 40.78455 | -111.99046 | 4230 ft | 3 kts | 0° |
| 2026-05-04 03:51 | 40.78435 | -111.99046 | 4230 ft | 3 kts | 351° |
| 2026-05-04 03:51 | 40.78423 | -111.99043 | 4230 ft | 3 kts | 290° |
| 2026-05-04 03:51 | 40.78423 | -111.99027 | 4230 ft | 3 kts | 264° |
| 2026-05-04 03:52 | 40.78425 | -111.99001 | 4230 ft | 3 kts | 265° |
| 2026-05-04 03:52 | 40.78426 | -111.98992 | 4230 ft | 1 kts | 265° |
| 2026-05-04 03:56 | 40.78424 | -111.99017 | 4230 ft | 5 kts | 264° |
| 2026-05-04 03:56 | 40.78422 | -111.99048 | 4230 ft | 9 kts | 265° |
| 2026-05-04 03:56 | 40.78417 | -111.99114 | 4230 ft | 8 kts | 265° |
| 2026-05-04 03:56 | 40.78412 | -111.99182 | 4230 ft | 7 kts | 264° |
| 2026-05-04 03:57 | 40.78410 | -111.99231 | 4230 ft | 0 kts | 268° |
| 2026-05-04 04:00 | 40.78410 | -111.99240 | 4230 ft | 2 kts | 268° |
| 2026-05-04 04:01 | 40.78410 | -111.99256 | 4230 ft | 3 kts | 268° |
| 2026-05-04 04:01 | 40.78410 | -111.99294 | 4230 ft | 6 kts | 274° |
| 2026-05-04 04:01 | 40.78414 | -111.99332 | 4230 ft | 5 kts | 280° |
| 2026-05-04 04:01 | 40.78416 | -111.99343 | 4230 ft | 3 kts | 281° |
| 2026-05-04 04:02 | 40.78414 | -111.99395 | 4230 ft | 4 kts | 251° |
| 2026-05-04 04:02 | 40.78393 | -111.99421 | 4230 ft | 8 kts | 206° |
| 2026-05-04 04:02 | 40.78313 | -111.99425 | 4230 ft | 11 kts | 175° |
| 2026-05-04 04:02 | 40.78215 | -111.99412 | 4230 ft | 16 kts | 174° |
| 2026-05-04 04:03 | 40.78099 | -111.99411 | 4229 ft | 19 kts | 188° |
| 2026-05-04 04:03 | 40.77954 | -111.99436 | 4230 ft | 23 kts | 177° |
| 2026-05-04 04:03 | 40.77813 | -111.99420 | 4230 ft | 16 kts | 175° |
| 2026-05-04 04:03 | 40.77702 | -111.99407 | 4231 ft | 16 kts | 174° |
| 2026-05-04 04:04 | 40.77615 | -111.99412 | 4231 ft | 6 kts | 209° |
| 2026-05-04 04:04 | 40.77610 | -111.99417 | 4231 ft | 0 kts | 218° |
| 2026-05-04 04:04 | 40.77601 | -111.99435 | 4230 ft | 6 kts | 244° |
| 2026-05-04 04:04 | 40.77596 | -111.99510 | 4232 ft | 11 kts | 280° |
| 2026-05-04 04:05 | 40.77649 | -111.99565 | 4232 ft | 13 kts | 348° |
| 2026-05-04 04:05 | 40.77993 | -111.99609 | 4229 ft | 90 kts | 355° |
| 2026-05-04 04:05 | 40.78873 | -111.99708 | 4232 ft | 161 kts | 355° |
| 2026-05-04 04:05 | 40.80162 | -111.99877 | 4518 ft | 202 kts | 354° |
| 2026-05-04 04:06 | 40.81115 | -112.00022 | 5056 ft | 214 kts | 354° |
| 2026-05-04 04:06 | 40.82628 | -112.00240 | 5838 ft | 223 kts | 349° |
| 2026-05-04 04:06 | 40.84022 | -112.01171 | 6566 ft | 232 kts | 316° |
| 2026-05-04 04:06 | 40.84843 | -112.02997 | 7347 ft | 236 kts | 283° |
| 2026-05-04 04:07 | 40.85020 | -112.05152 | 8190 ft | 236 kts | 272° |
| 2026-05-04 04:07 | 40.85068 | -112.07318 | 9093 ft | 232 kts | 268° |
| 2026-05-04 04:07 | 40.84610 | -112.09388 | 9552 ft | 246 kts | 239° |
| 2026-05-04 04:07 | 40.83579 | -112.11299 | 9783 ft | 263 kts | 232° |
| 2026-05-04 04:08 | 40.82451 | -112.13239 | 10239 ft | 268 kts | 233° |
| 2026-05-04 04:08 | 40.81345 | -112.15235 | 10764 ft | 270 kts | 234° |
| 2026-05-04 04:08 | 40.80271 | -112.17291 | 11292 ft | 276 kts | 236° |
| 2026-05-04 04:08 | 40.79173 | -112.19489 | 11433 ft | 298 kts | 237° |
| 2026-05-04 04:09 | 40.78003 | -112.21887 | 11591 ft | 324 kts | 237° |
| 2026-05-04 04:09 | 40.76752 | -112.24446 | 11821 ft | 346 kts | 234° |
| 2026-05-04 04:09 | 40.75017 | -112.26681 | 12390 ft | 354 kts | 212° |
| 2026-05-04 04:09 | 40.72765 | -112.27977 | 13217 ft | 355 kts | 193° |
| 2026-05-04 04:10 | 40.70323 | -112.28514 | 14044 ft | 357 kts | 188° |
| 2026-05-04 04:10 | 40.67838 | -112.28958 | 14707 ft | 362 kts | 188° |
| 2026-05-04 04:10 | 40.65321 | -112.29408 | 15373 ft | 366 kts | 188° |
| 2026-05-04 04:10 | 40.62784 | -112.29893 | 16052 ft | 370 kts | 189° |
| 2026-05-04 04:11 | 40.60223 | -112.30405 | 16716 ft | 375 kts | 189° |
| 2026-05-04 04:11 | 40.57630 | -112.30932 | 17377 ft | 379 kts | 190° |
| 2026-05-04 04:11 | 40.55069 | -112.31627 | 18008 ft | 383 kts | 197° |
| 2026-05-04 04:11 | 40.52510 | -112.32638 | 18605 ft | 386 kts | 198° |
| 2026-05-04 04:12 | 40.49947 | -112.33723 | 19222 ft | 388 kts | 199° |
| 2026-05-04 04:12 | 40.47368 | -112.34824 | 19826 ft | 390 kts | 199° |
| 2026-05-04 04:12 | 40.44771 | -112.35921 | 20410 ft | 393 kts | 199° |
| 2026-05-04 04:12 | 40.42154 | -112.37011 | 20971 ft | 396 kts | 199° |
| 2026-05-04 04:13 | 40.39516 | -112.38098 | 21530 ft | 399 kts | 198° |
| 2026-05-04 04:13 | 40.36856 | -112.39187 | 22083 ft | 402 kts | 198° |
| 2026-05-04 04:13 | 40.34165 | -112.40284 | 22617 ft | 405 kts | 198° |
| 2026-05-04 04:13 | 40.31465 | -112.41382 | 23093 ft | 409 kts | 198° |
| 2026-05-04 04:14 | 40.28726 | -112.42496 | 23533 ft | 413 kts | 198° |
| 2026-05-04 04:14 | 40.25987 | -112.43609 | 24053 ft | 413 kts | 198° |
| 2026-05-04 04:14 | 40.23240 | -112.44725 | 24557 ft | 413 kts | 198° |
| 2026-05-04 04:14 | 40.20482 | -112.45844 | 25002 ft | 415 kts | 198° |
| 2026-05-04 04:15 | 40.17749 | -112.47083 | 25426 ft | 417 kts | 204° |
| 2026-05-04 04:15 | 40.15162 | -112.48787 | 25845 ft | 418 kts | 208° |
| 2026-05-04 04:15 | 40.12635 | -112.50589 | 26279 ft | 419 kts | 209° |
| 2026-05-04 04:15 | 40.10076 | -112.52433 | 26697 ft | 421 kts | 209° |
| 2026-05-04 04:16 | 40.07505 | -112.54280 | 27091 ft | 423 kts | 209° |
| 2026-05-04 04:16 | 40.04918 | -112.56123 | 27474 ft | 425 kts | 209° |
| 2026-05-04 04:16 | 40.02311 | -112.57968 | 27868 ft | 427 kts | 208° |
| 2026-05-04 04:16 | 39.99690 | -112.59812 | 28252 ft | 428 kts | 208° |
| 2026-05-04 04:17 | 39.97059 | -112.61658 | 28675 ft | 429 kts | 208° |
| 2026-05-04 04:17 | 39.94441 | -112.63491 | 29256 ft | 425 kts | 208° |
| 2026-05-04 04:17 | 39.91847 | -112.65305 | 29890 ft | 421 kts | 208° |
| 2026-05-04 04:17 | 39.89276 | -112.67103 | 30352 ft | 419 kts | 208° |
| 2026-05-04 04:18 | 39.86703 | -112.68900 | 30686 ft | 420 kts | 208° |
| 2026-05-04 04:18 | 39.84126 | -112.70699 | 31019 ft | 421 kts | 208° |
| 2026-05-04 04:18 | 39.81542 | -112.72502 | 31430 ft | 419 kts | 208° |
| 2026-05-04 04:18 | 39.78977 | -112.74290 | 31867 ft | 417 kts | 209° |
| 2026-05-04 04:19 | 39.76426 | -112.76067 | 32231 ft | 417 kts | 209° |
| 2026-05-04 04:19 | 39.73897 | -112.77828 | 32553 ft | 417 kts | 209° |
| 2026-05-04 04:19 | 39.71342 | -112.79603 | 32932 ft | 416 kts | 209° |
| 2026-05-04 04:19 | 39.68711 | -112.81172 | 33320 ft | 416 kts | 201° |
| 2026-05-04 04:20 | 39.65932 | -112.82243 | 33690 ft | 417 kts | 194° |
| 2026-05-04 04:20 | 39.63039 | -112.82799 | 33754 ft | 423 kts | 189° |
| 2026-05-04 04:20 | 39.58152 | -112.83483 | 33773 ft | 424 kts | 188° |
| 2026-05-04 04:21 | 39.49413 | -112.84696 | 33788 ft | 416 kts | 189° |
| 2026-05-04 04:22 | 39.46673 | -112.85098 | 33801 ft | 417 kts | 189° |